createdAt,value
2022-08-03T00:00:30.102Z,322.5
2022-08-03T00:05:30.119Z,310
2022-08-03T00:10:30.109Z,305
2022-08-03T00:15:30.113Z,307.5
2022-08-03T00:20:30.127Z,310
2022-08-03T00:25:30.109Z,330
2022-08-03T00:30:30.865Z,307.5
2022-08-03T00:35:35.187Z,295
2022-08-03T00:40:30.115Z,305
2022-08-03T00:45:30.108Z,295
2022-08-03T00:50:30.108Z,300
2022-08-03T00:55:30.132Z,312.5
2022-08-03T01:00:30.117Z,315
2022-08-03T01:05:30.123Z,300
2022-08-03T01:10:31.016Z,317.5
2022-08-03T01:15:30.099Z,315
2022-08-03T01:20:30.110Z,307.5
2022-08-03T01:25:30.108Z,320
2022-08-03T01:30:30.111Z,310
2022-08-03T01:35:30.105Z,320
2022-08-03T01:40:30.119Z,317.5
2022-08-03T01:45:30.112Z,315
2022-08-03T01:50:30.099Z,310
2022-08-03T01:55:30.110Z,307.5
2022-08-03T02:00:30.098Z,322.5
2022-08-03T02:05:30.106Z,302.5
2022-08-03T02:10:31.013Z,312.5
2022-08-03T02:15:30.109Z,305
2022-08-03T02:20:30.095Z,325
2022-08-03T02:25:30.117Z,315
2022-08-03T02:30:30.101Z,315
2022-08-03T02:35:30.099Z,320
2022-08-03T02:40:30.113Z,315
2022-08-03T02:45:30.107Z,320
2022-08-03T02:50:30.096Z,320
2022-08-03T02:55:30.120Z,320
2022-08-03T03:00:30.114Z,320
2022-08-03T03:05:53.855Z,317.5
2022-08-03T03:10:30.113Z,320
2022-08-03T03:15:30.128Z,315
2022-08-03T03:20:30.659Z,320
2022-08-03T03:25:30.113Z,320
2022-08-03T03:30:30.164Z,330
2022-08-03T03:35:30.114Z,310
2022-08-03T03:40:30.144Z,310
2022-08-03T03:45:30.125Z,310
2022-08-03T03:50:30.115Z,310
2022-08-03T03:55:30.105Z,310
2022-08-03T04:00:30.169Z,310
2022-08-03T04:05:30.121Z,310
2022-08-03T04:10:30.108Z,310
2022-08-03T04:15:30.111Z,310
2022-08-03T04:20:30.102Z,310
2022-08-03T04:25:30.123Z,310
2022-08-03T04:30:30.109Z,310
2022-08-03T04:35:59.731Z,300
2022-08-03T04:40:30.114Z,295
2022-08-03T04:45:30.122Z,297.5
2022-08-03T04:50:30.105Z,195
2022-08-03T04:55:30.128Z,220
2022-08-03T05:00:30.128Z,315
2022-08-03T05:05:37.898Z,332.5
2022-08-03T05:10:30.103Z,332.5
2022-08-03T05:15:30.104Z,25
2022-08-03T05:20:30.112Z,60
2022-08-03T05:25:30.103Z,30
2022-08-03T05:30:33.023Z,15
2022-08-03T05:35:55.385Z,27.5
2022-08-03T05:40:30.111Z,65
2022-08-03T05:45:30.136Z,45
2022-08-03T05:50:30.112Z,47.5
2022-08-03T05:55:30.120Z,27.5
2022-08-03T06:00:30.101Z,15
2022-08-03T06:05:30.113Z,57.5
2022-08-03T06:10:33.455Z,72.5
2022-08-03T06:15:30.125Z,67.5
2022-08-03T06:20:30.105Z,60
2022-08-03T06:25:30.115Z,37.5
2022-08-03T06:30:30.112Z,75
2022-08-03T06:35:30.108Z,85
2022-08-03T06:40:30.109Z,32.5
2022-08-03T06:45:31.961Z,67.5
2022-08-03T06:50:30.096Z,67.5
2022-08-03T06:55:30.116Z,50
2022-08-03T07:00:30.107Z,65
2022-08-03T07:05:30.125Z,60
2022-08-03T07:10:30.121Z,47.5
2022-08-03T07:15:53.669Z,70
2022-08-03T07:20:32.576Z,90
2022-08-03T07:25:30.179Z,77.5
2022-08-03T07:30:30.127Z,45
2022-08-03T07:35:30.124Z,32.5
2022-08-03T07:40:30.717Z,45
2022-08-03T07:45:30.124Z,82.5
2022-08-03T07:50:30.120Z,75
2022-08-03T07:55:30.288Z,77.5
2022-08-03T08:00:30.117Z,72.5
2022-08-03T08:05:30.127Z,85
2022-08-03T08:10:30.132Z,110
2022-08-03T08:15:30.111Z,110
2022-08-03T08:20:30.614Z,82.5
2022-08-03T08:25:30.112Z,90
2022-08-03T08:30:30.108Z,77.5
2022-08-03T08:35:30.115Z,85
2022-08-03T08:40:30.109Z,322.5
2022-08-03T08:45:30.173Z,92.5
2022-08-03T08:50:30.144Z,95
2022-08-03T08:55:30.222Z,117.5
2022-08-03T09:00:30.106Z,117.5
2022-08-03T09:05:53.842Z,225
2022-08-03T09:10:30.111Z,215
2022-08-03T09:15:30.115Z,122.5
2022-08-03T09:20:30.114Z,122.5
2022-08-03T09:25:30.118Z,135
2022-08-03T09:30:34.002Z,172.5
2022-08-03T09:40:30.104Z,110
2022-08-03T09:45:30.119Z,140
2022-08-03T09:50:30.103Z,140
2022-08-03T09:56:31.083Z,140
2022-08-03T10:00:30.111Z,197.5
2022-08-03T10:05:30.118Z,312.5
2022-08-03T10:10:32.177Z,90
2022-08-03T10:16:20.562Z,190
2022-08-03T10:20:30.100Z,115
2022-08-03T10:25:33.108Z,137.5
2022-08-03T10:30:30.112Z,122.5
2022-08-03T10:35:30.113Z,127.5
2022-08-03T10:45:30.125Z,165
2022-08-03T10:50:30.105Z,285
2022-08-03T10:55:30.125Z,182.5
2022-08-03T11:00:30.244Z,192.5
2022-08-03T11:05:30.116Z,140
2022-08-03T11:10:30.122Z,152.5
2022-08-03T11:15:30.103Z,142.5
2022-08-03T11:20:30.114Z,212.5
2022-08-03T11:25:54.504Z,55
2022-08-03T11:30:30.106Z,182.5
2022-08-03T11:35:30.123Z,95
2022-08-03T11:40:30.101Z,80
2022-08-03T11:45:30.105Z,225
2022-08-03T11:50:30.104Z,220
2022-08-03T11:55:30.690Z,235
2022-08-03T12:00:30.104Z,190
2022-08-03T12:05:30.117Z,262.5
2022-08-03T12:10:30.103Z,342.5
2022-08-03T12:15:30.150Z,150
2022-08-03T12:20:31.579Z,167.5
2022-08-03T12:25:38.943Z,110
2022-08-03T12:30:30.120Z,150
2022-08-03T12:35:30.122Z,125
2022-08-03T12:40:30.107Z,170
2022-08-03T12:45:30.112Z,132.5
2022-08-03T12:50:31.293Z,127.5
2022-08-03T12:55:30.112Z,107.5
2022-08-03T13:00:30.116Z,82.5
2022-08-03T13:05:30.129Z,25
2022-08-03T13:10:30.104Z,97.5
2022-08-03T13:15:30.130Z,85
2022-08-03T13:20:30.116Z,82.5
2022-08-03T13:25:30.120Z,145
2022-08-03T13:30:30.720Z,162.5
2022-08-03T13:35:30.125Z,102.5
2022-08-03T13:40:30.457Z,235
2022-08-03T13:45:30.116Z,225
2022-08-03T13:50:30.120Z,160
2022-08-03T13:55:30.116Z,97.5
2022-08-03T14:00:30.109Z,210
2022-08-03T14:05:30.109Z,250
2022-08-03T14:10:30.108Z,245
2022-08-03T14:15:30.119Z,155
2022-08-03T14:20:37.665Z,150
2022-08-03T14:25:30.108Z,125
2022-08-03T14:30:30.098Z,125
2022-08-03T14:35:30.101Z,155
2022-08-03T14:40:30.101Z,110
2022-08-03T14:45:30.118Z,120
2022-08-03T14:50:40.889Z,137.5
2022-08-03T14:55:37.985Z,82.5
2022-08-03T15:00:30.104Z,230
2022-08-03T15:05:30.113Z,210
2022-08-03T15:10:30.647Z,217.5
2022-08-03T15:15:30.105Z,217.5
2022-08-03T15:20:42.922Z,92.5
2022-08-03T15:26:01.807Z,110
2022-08-03T15:30:30.102Z,110
2022-08-03T15:35:30.108Z,195
2022-08-03T15:40:30.107Z,272.5
2022-08-03T15:45:35.538Z,202.5
2022-08-03T15:50:30.115Z,202.5
2022-08-03T15:55:30.113Z,110
2022-08-03T16:00:33.603Z,172.5
2022-08-03T16:05:30.110Z,115
2022-08-03T16:10:30.104Z,135
2022-08-03T16:15:30.109Z,187.5
2022-08-03T16:20:31.631Z,200
2022-08-03T16:25:30.115Z,170
2022-08-03T16:30:30.118Z,175
2022-08-03T16:35:30.111Z,200
2022-08-03T16:40:30.114Z,210
2022-08-03T16:45:30.120Z,147.5
2022-08-03T16:50:30.102Z,147.5
2022-08-03T16:55:43.163Z,90
2022-08-03T17:00:33.437Z,90
2022-08-03T17:05:32.743Z,245
2022-08-03T17:10:30.101Z,260
2022-08-03T17:15:58.498Z,260
2022-08-03T17:20:30.163Z,225
2022-08-03T17:25:39.663Z,200
2022-08-03T17:30:30.105Z,200
2022-08-03T17:35:34.228Z,157.5
2022-08-03T17:40:30.815Z,185
2022-08-03T17:45:42.359Z,57.5
2022-08-03T17:50:30.104Z,50
2022-08-03T17:55:51.065Z,7.5
2022-08-03T18:00:30.127Z,320
2022-08-03T18:06:08.887Z,315
2022-08-03T18:10:30.111Z,315
2022-08-03T18:15:30.106Z,315
2022-08-03T18:20:32.638Z,320
2022-08-03T18:25:38.322Z,317.5
2022-08-03T18:30:30.114Z,322.5
2022-08-03T18:35:53.214Z,325
2022-08-03T18:40:30.108Z,330
2022-08-03T18:45:55.558Z,312.5
2022-08-03T18:50:30.631Z,320
2022-08-03T18:55:33.306Z,332.5
2022-08-03T19:00:34.340Z,320
2022-08-03T19:05:49.361Z,335
2022-08-03T19:10:30.109Z,322.5
2022-08-03T19:15:36.245Z,312.5
2022-08-03T19:20:30.103Z,305
2022-08-03T19:25:34.652Z,310
2022-08-03T19:30:30.103Z,320
2022-08-03T19:35:46.496Z,330
2022-08-03T19:40:30.117Z,312.5
2022-08-03T19:46:05.660Z,307.5
2022-08-03T19:50:30.113Z,317.5
2022-08-03T19:55:30.874Z,322.5
2022-08-03T20:00:30.629Z,320
2022-08-03T20:05:30.111Z,305
2022-08-03T20:10:30.112Z,315
2022-08-03T20:15:30.984Z,302.5
2022-08-03T20:20:30.118Z,300
2022-08-03T20:25:37.766Z,305
2022-08-03T20:30:30.110Z,305
2022-08-03T20:35:30.114Z,320
2022-08-03T20:40:30.114Z,320
2022-08-03T20:45:58.719Z,315
2022-08-03T20:50:30.108Z,315
2022-08-03T20:55:47.441Z,317.5
2022-08-03T21:00:30.107Z,315
2022-08-03T21:05:31.028Z,300
2022-08-03T21:10:30.128Z,302.5
2022-08-03T21:16:01.246Z,310
2022-08-03T21:20:30.143Z,292.5
2022-08-03T21:25:30.123Z,292.5
2022-08-03T21:30:30.149Z,310
2022-08-03T21:35:30.130Z,310
2022-08-03T21:40:30.130Z,315
2022-08-03T21:45:30.324Z,320
2022-08-03T21:50:30.146Z,312.5
2022-08-03T21:55:30.135Z,307.5
2022-08-03T22:00:30.139Z,302.5
2022-08-03T22:05:42.762Z,285
2022-08-03T22:10:30.145Z,290
2022-08-03T22:15:30.115Z,290
2022-08-03T22:20:30.114Z,282.5
2022-08-03T22:25:30.136Z,295
2022-08-03T22:30:30.114Z,295
2022-08-03T22:35:30.101Z,285
2022-08-03T22:40:30.101Z,320
2022-08-03T22:45:45.534Z,317.5
2022-08-03T22:50:30.894Z,322.5
2022-08-03T22:55:30.110Z,317.5
2022-08-03T23:00:30.114Z,315
2022-08-03T23:06:00.074Z,320
2022-08-03T23:10:30.110Z,310
2022-08-03T23:15:30.111Z,305
2022-08-03T23:20:30.122Z,317.5
2022-08-03T23:25:30.106Z,290
2022-08-03T23:30:31.424Z,307.5
2022-08-03T23:36:09.208Z,312.5
2022-08-03T23:40:30.129Z,302.5
2022-08-03T23:45:30.114Z,320
2022-08-03T23:50:30.110Z,320
2022-08-03T23:55:30.104Z,320
